Detall de PIREP

Printer-friendly versionPDF version

[2014/03/25 18:14:00]
Flight IATA:CT3207
Pilot Number:012
Company ICAO:CAT
Aircraft Type:B738/F
PAX:160
Departing Airport: LZIB
Destination Airport: LEPA
Alternate Airport:LEBL
Online: VATSIM
Route:TOVKA UM138 ABRUK UM984 PADKO UY38 VATIR UN852 VERSO UL129 LUNIK
Flight Level:F350
No Slew and time accel
No pause
Crash detect
Detect pilot in Cockpit between each 30 and 45 minutes
18:14 Zero fuel Weight: 125956 Lbs, Fuel Weight: 25238 Lbs
18:14 VATSIM:LZIB 251800Z 08003KT CAVOK 07/M01 Q1010 NOSIG
18:14 VATSIM:LEPA 251800Z 22005KT 190V260 9999 FEW055 15/09 Q1009 NOSIG
18:15 Parking Brakes off
18:20 Take-off
18:20 Take off Weight: 150516 Lbs
18:20 Wind: 356º @ 002 Knots Heading: 314º
18:20 POS N48º 10´ 14´´ E017º 12´ 42´´
18:20 Gear Up: 160 Knots
18:20 Flaps:3 at 160 Knots
18:20 Flaps:2 at 192 Knots
18:20 Flaps:1 at 193 Knots
18:20 Flaps:0 at 208 Knots
18:35 Wind:267º@042 Knots Heading: 255º Ground Speed: 424 Knots Altitude 29376 ft
18:40 TOC
18:40 Fuel Weight: 20626 Lb
18:50 Wind:268º@027 Knots Heading: 253º Ground Speed: 429 Knots Altitude 34803 ft
19:05 Wind:262º@016 Knots Heading: 243º Ground Speed: 440 Knots Altitude 34691 ft
19:20 Wind:278º@009 Knots Heading: 215º Ground Speed: 451 Knots Altitude 34793 ft
19:35 Wind:289º@022 Knots Heading: 248º Ground Speed: 450 Knots Altitude 34783 ft
19:50 Wind:286º@032 Knots Heading: 223º Ground Speed: 451 Knots Altitude 34776 ft
20:04 TOD
20:04 Fuel Weight: 12692 Lb
20:05 Wind:297º@036 Knots Heading: 202º Ground Speed: 467 Knots Altitude 33011 ft
20:18 Flaps:1 at 238 Knots
20:20 Wind:300º@036 Knots Heading: 277º Ground Speed: 196 Knots Altitude 4658 ft
20:20 Flaps:2 at 204 Knots
20:22 Flaps:3 at 200 Knots
20:24 Gear Down: 177 Knots
20:24 Flaps:4 at 176 Knots
20:24 Flaps:5 at 170 Knots
20:25 Flaps:6 at 175 Knots
20:25 Flaps:7 at 160 Knots
20:28 TouchDown:Rate -200 ft/min Speed: 134 Knots
20:29 VATSIM:LEPA 252000Z 32022G32KT 9000 TS FEW020 FEW028CB ///// Q1009 NOSIG
20:29 Land
20:29 Wind:311º@025 Knots
20:29 Heading: 248º
20:29 Flight Duration: 02:09
20:29 Landing Weight: 137240 Lbs
20:29 POS N39º 32´ 44´´ E002º 44´ 26´´
20:30 Parking brakes on
20:30 Block to Block Duration: 02:15
20:30 Final Fuel: 11197 Lbls
20:30 Spent Fuel: 14041 Lbls
20:30 Flight Length: 866 NM
20:30 TOD Land Length: 115 NM

Exportar CSV

Powered by Drupal - Modified by Danger4k